EIKN - Connaught
Distance from station: E 5mi, 14km
Updated: 02/17/2018 12:00pm
NOT Current
Partly Cloudy
Partly Cloudy
 Wind from S
Wind: S 5 mph , 7 km/h
Temperature: 37°F , 3°C
Wind Chill: 33°F , 1°C
Dew Point: 36°F , 2°C
Humidity: 93%
Barometer: 30 inHg , 1016 hPa
Clouds: Partly Cloudy
Visibility: 6 miles , 10 km
Cloud details: Partly Cloudy 4800 ft
Partly Cloudy 28000 ft
2018/02/17 20:00 EIKN 172000Z 17004KT 9999 SCT048 SCT280 03/02 Q1016 NOSIG